• Join FlightAware (Why Join?)
  • Login
  • US Flag 
04:47PM EST


 

Airport Tracker/Info


-or-


 

Live Flight TrackerFlight Track Log ✈ TAM3194 ✈ 12-Sep-2013 ✈ SBRJ / SDU - SBVT / VIX

Flight Track Log - Related Links

Times and Time Zones

All times are in EDT time to prevent confusion due to time zone crossing. See the TAM3194 flight status page for this flight to view local times or setup timezone preferences in your user account.

Time Position Orientation Groundspeed Altitude Reporting Facility
EDT Latitude Longitude Course Direction KTS MPH feet Rate Location/Type
11:56AM -21.5370 -41.6537 46° Northeast  Level Estimated
11:57AM -21.4858 -41.5983 45° Northeast  Level Estimated
11:58AM -21.4347 -41.5430 45° Northeast  Level Estimated
11:59AM -21.3835 -41.4877 45° Northeast  Level Estimated
12:00PM -21.3323 -41.4325 45° Northeast  Level Estimated
12:01PM -21.2811 -41.3773 45° Northeast  Level Estimated
12:02PM -21.2299 -41.3222 45° Northeast  Level Estimated
12:03PM -21.1787 -41.2671 45° Northeast  Level Estimated
12:04PM -21.1274 -41.2120 45° Northeast  Level Estimated
12:05PM -21.0761 -41.1569 45° Northeast  Level Estimated
12:06PM -21.0248 -41.1019 45° Northeast  Level Estimated
12:07PM -20.9735 -41.0470 45° Northeast  Level Estimated
12:08PM -20.9222 -40.9921 45° Northeast  Level Estimated
12:09PM -20.8708 -40.9372 45° Northeast  Level Estimated
12:10PM -20.8195 -40.8823 45° Northeast  Level Estimated
12:11PM -20.7681 -40.8275 45° Northeast  Level Estimated
12:12PM -20.7167 -40.7727 45° Northeast  Level Estimated
12:13PM -20.6653 -40.7180 45° Northeast  Level Estimated
12:14PM -20.6139 -40.6633 45° Northeast  Level Estimated
12:15PM -20.5624 -40.6086 45° Northeast  Level Estimated
12:16PM -20.5109 -40.5540 45° Northeast  Level Estimated
12:17PM -20.4594 -40.4994 45° Northeast  Level Estimated
12:18PM -20.4079 -40.4449 45° Northeast  Level Estimated
12:19PM -20.3564 -40.3903 45° Northeast  Level Estimated
12:20PM -20.3049 -40.3359 45° Northeast  Level Estimated
12:21PM -20.2581 -40.2864 45° Northeast  Level Estimated
12:22PM -20.2581 -40.2864 13° North  Level Estimated
12:23PM -20.2581 -40.2864 13° North  Level Estimated
12:24PM -20.2581 -40.2864 13° North  Level Estimated
12:25PM -20.2581 -40.2864 13° North  Level Estimated
12:26PM -20.2581 -40.2864 13° North  Level Estimated
12:27PM -20.2581 -40.2864 13° North  Level Estimated
12:28PM -20.2581 -40.2864 13° North  Level Estimated
12:29PM -20.2581 -40.2864 13° North  Level Estimated
12:30PM -20.2581 -40.2864 13° North  Level Estimated
12:31PM -20.2581 -40.2864 13° North  Level Estimated
12:32PM -20.2581 -40.2864 13° North  Level Estimated
12:33PM -20.2581 -40.2864 13° North  Level Estimated
12:34PM -20.2581 -40.2864 13° North  Level Estimated
12:35PM -20.2581 -40.2864 13° North  Level Estimated
12:36PM -20.2581 -40.2864 13° North  Level Estimated
12:37PM -20.2581 -40.2864 13° North  Level Estimated